No particular awareness of the weather is required.    There are no Weather-warnings


Meteo18 Weather Cam more information Meteo18 Weather Cam


Thunder radar more information blitzortung!


Rain radar more information rain snow radar


Visit our other weather sites:

Template documentation
and downloads

And another site



Weather Underground History page Text

Daily Summary for August 22, 2016 Units:  Metric    English   Both
« Previous Day
Next Day »
Daily Weekly Monthly Yearly Custom
  High: Low: Average:
Temperature: 27.7 °C 9.8 °C 19.6 °C
Dew Point: 14.4 °C 7.8 °C 11.3 °C
Humidity: 89 % 42 % 61 %
Wind Speed: 12.9 km/h 0.0 km/h 1.9 km/h
Wind Gust: 16.1 km/h - -
Wind:- - ESE
Pressure: 1027.7 hPa 1025.3 hPa -
Precipitation: 0.0 mm    
Historical Graphs
 
 
Tabular Data for August 22, 2016
Time Temperature Dew Point Pressure Wind Wind Speed Wind Gust Humidity Rainfall Rate (Hourly)
00:02 13.3 °C 8.8 °C 1026.0 hPa Calm     74 % 0.0 mm
00:12 13.1 °C 9.0 °C 1026.0 hPa Calm     76 % 0.0 mm
00:22 13.1 °C 9.0 °C 1026.0 hPa Calm     76 % 0.0 mm
00:32 13.1 °C 9.0 °C 1026.0 hPa Calm     76 % 0.0 mm
00:42 12.9 °C 8.8 °C 1026.0 hPa Calm     76 % 0.0 mm
00:52 12.9 °C 8.8 °C 1026.0 hPa Calm     76 % 0.0 mm
00:57 12.9 °C 9.0 °C 1026.0 hPa Calm     77 % 0.0 mm
01:02 12.9 °C 9.0 °C 1026.0 hPa Calm     77 % 0.0 mm
01:07 12.8 °C 8.9 °C 1026.0 hPa Calm     77 % 0.0 mm
01:12 12.7 °C 8.8 °C 1026.0 hPa Calm     77 % 0.0 mm
01:17 12.6 °C 8.9 °C 1026.0 hPa Calm     78 % 0.0 mm
01:22 12.7 °C 9.0 °C 1026.0 hPa Calm     78 % 0.0 mm
01:27 12.7 °C 9.0 °C 1026.0 hPa Calm     78 % 0.0 mm
01:32 12.8 °C 8.9 °C 1026.0 hPa Calm     77 % 0.0 mm
01:37 12.7 °C 8.8 °C 1026.0 hPa Calm     77 % 0.0 mm
01:42 12.7 °C 8.8 °C 1026.0 hPa Calm     77 % 0.0 mm
01:47 12.6 °C 8.9 °C 1026.0 hPa Calm     78 % 0.0 mm
01:52 12.5 °C 8.6 °C 1026.0 hPa Calm     77 % 0.0 mm
01:57 12.4 °C 8.7 °C 1026.0 hPa Calm     78 % 0.0 mm
02:02 12.4 °C 8.7 °C 1026.0 hPa Calm     78 % 0.0 mm
02:07 12.3 °C 8.6 °C 1026.0 hPa Calm     78 % 0.0 mm
02:12 12.2 °C 8.7 °C 1026.0 hPa Calm     79 % 0.0 mm
02:22 12.3 °C 8.8 °C 1026.0 hPa Calm     79 % 0.0 mm
02:27 12.3 °C 8.8 °C 1026.0 hPa Calm     79 % 0.0 mm
02:32 12.4 °C 8.7 °C 1026.0 hPa Calm     78 % 0.0 mm
02:37 12.4 °C 8.7 °C 1026.0 hPa Calm   1.6 km/h 78 % 0.0 mm
02:42 12.4 °C 8.7 °C 1026.0 hPa Calm   1.6 km/h 78 % 0.0 mm
02:47 12.3 °C 8.6 °C 1026.0 hPa Calm   1.6 km/h 78 % 0.0 mm
02:52 12.2 °C 8.7 °C 1026.0 hPa Calm   1.6 km/h 79 % 0.0 mm
02:57 12.2 °C 8.9 °C 1026.0 hPa Calm     80 % 0.0 mm
03:02 12.3 °C 8.8 °C 1026.0 hPa Calm     79 % 0.0 mm
03:07 12.6 °C 8.9 °C 1026.0 hPa Calm     78 % 0.0 mm
03:12 13.0 °C 8.9 °C 1026.0 hPa Calm     76 % 0.0 mm
03:17 13.1 °C 8.8 °C 1026.0 hPa Calm   1.6 km/h 75 % 0.0 mm
03:22 12.8 °C 8.7 °C 1026.0 hPa Calm   1.6 km/h 76 % 0.0 mm
03:27 12.6 °C 8.7 °C 1026.0 hPa Calm     77 % 0.0 mm
03:32 12.4 °C 8.7 °C 1026.0 hPa Calm     78 % 0.0 mm
03:37 12.3 °C 8.8 °C 1026.0 hPa Calm     79 % 0.0 mm
03:42 12.3 °C 8.6 °C 1026.0 hPa Calm     78 % 0.0 mm
03:52 11.8 °C 8.3 °C 1026.0 hPa Calm     79 % 0.0 mm
03:57 11.7 °C 8.2 °C 1026.0 hPa Calm     79 % 0.0 mm
04:02 11.4 °C 7.9 °C 1026.0 hPa Calm     79 % 0.0 mm
04:07 11.1 °C 7.8 °C 1026.0 hPa Calm     80 % 0.0 mm
04:12 10.9 °C 7.8 °C 1026.0 hPa Calm     81 % 0.0 mm
04:17 10.8 °C 7.9 °C 1026.0 hPa Calm     82 % 0.0 mm
04:27 10.7 °C 7.9 °C 1026.0 hPa Calm     83 % 0.0 mm
04:32 10.6 °C 8.0 °C 1026.0 hPa Calm     84 % 0.0 mm
04:42 10.6 °C 8.2 °C 1026.0 hPa Calm     85 % 0.0 mm
04:47 10.6 °C 8.2 °C 1026.0 hPa Calm     85 % 0.0 mm
04:52 10.5 °C 8.1 °C 1026.0 hPa Calm     85 % 0.0 mm
05:02 10.5 °C 8.3 °C 1026.0 hPa Calm     86 % 0.0 mm
05:12 10.7 °C 8.3 °C 1026.0 hPa Calm     85 % 0.0 mm
05:22 10.6 °C 8.4 °C 1026.3 hPa Calm   1.6 km/h 86 % 0.0 mm
05:32 10.4 °C 8.2 °C 1026.0 hPa Calm   1.6 km/h 86 % 0.0 mm
05:42 10.4 °C 8.3 °C 1026.3 hPa Calm   1.6 km/h 87 % 0.0 mm
05:52 10.3 °C 8.1 °C 1026.3 hPa Calm   1.6 km/h 86 % 0.0 mm
06:02 10.4 °C 8.3 °C 1026.3 hPa Calm   1.6 km/h 87 % 0.0 mm
06:12 10.2 °C 8.1 °C 1026.3 hPa Calm     87 % 0.0 mm
06:17 10.2 °C 8.1 °C 1026.3 hPa Calm     87 % 0.0 mm
06:22 10.2 °C 8.1 °C 1026.3 hPa Calm     87 % 0.0 mm
06:32 10.0 °C 8.1 °C 1026.3 hPa Calm     88 % 0.0 mm
06:42 9.9 °C 8.0 °C 1026.3 hPa Calm   1.6 km/h 88 % 0.0 mm
06:52 9.9 °C 8.2 °C 1026.3 hPa Calm   1.6 km/h 89 % 0.0 mm
06:57 9.8 °C 7.9 °C 1026.3 hPa Calm     88 % 0.0 mm
07:02 9.8 °C 8.1 °C 1026.3 hPa Calm     89 % 0.0 mm
07:12 9.9 °C 8.2 °C 1026.6 hPa North 1.6 km/h 1.6 km/h 89 % 0.0 mm
07:17 10.1 °C 8.4 °C 1026.6 hPa NNE 1.6 km/h 1.6 km/h 89 % 0.0 mm
07:27 10.7 °C 8.6 °C 1026.6 hPa North 1.6 km/h 3.2 km/h 87 % 0.0 mm
07:32 10.9 °C 8.8 °C 1026.6 hPa Calm   3.2 km/h 87 % 0.0 mm
07:42 11.6 °C 9.2 °C 1026.6 hPa Calm   3.2 km/h 85 % 0.0 mm
07:52 12.8 °C 10.0 °C 1027.0 hPa Calm   1.6 km/h 83 % 0.0 mm
08:02 12.9 °C 9.7 °C 1027.0 hPa Calm     81 % 0.0 mm
08:12 13.9 °C 10.1 °C 1027.0 hPa Calm   1.6 km/h 78 % 0.0 mm
08:22 14.1 °C 10.1 °C 1027.3 hPa Calm   1.6 km/h 77 % 0.0 mm
08:32 15.3 °C 10.9 °C 1027.3 hPa Calm   1.6 km/h 75 % 0.0 mm
08:37 16.0 °C 10.5 °C 1027.3 hPa Calm   1.6 km/h 70 % 0.0 mm
08:42 15.8 °C 10.3 °C 1027.3 hPa Calm   1.6 km/h 70 % 0.0 mm
08:52 16.1 °C 10.4 °C 1027.3 hPa Calm   1.6 km/h 69 % 0.0 mm
08:57 16.3 °C 10.6 °C 1027.7 hPa Calm   3.2 km/h 69 % 0.0 mm
09:02 16.5 °C 10.8 °C 1027.7 hPa Calm   3.2 km/h 69 % 0.0 mm
09:12 16.7 °C 10.8 °C 1027.7 hPa Calm   3.2 km/h 68 % 0.0 mm
09:17 17.1 °C 10.5 °C 1027.7 hPa South 1.6 km/h 3.2 km/h 65 % 0.0 mm
09:27 17.7 °C 10.8 °C 1027.7 hPa Calm   3.2 km/h 64 % 0.0 mm
09:32 18.3 °C 10.9 °C 1027.7 hPa Calm   3.2 km/h 62 % 0.0 mm
09:52 19.5 °C 11.3 °C 1027.7 hPa Calm   3.2 km/h 59 % 0.0 mm
10:02 19.6 °C 11.1 °C 1027.7 hPa Calm   3.2 km/h 58 % 0.0 mm
10:12 19.9 °C 11.1 °C 1027.7 hPa SE 1.6 km/h 4.8 km/h 57 % 0.0 mm
10:22 20.0 °C 10.7 °C 1027.7 hPa SSE 1.6 km/h 4.8 km/h 55 % 0.0 mm
10:32 20.8 °C 11.2 °C 1027.7 hPa Calm   8.0 km/h 54 % 0.0 mm
10:42 20.7 °C 11.1 °C 1027.7 hPa SW 1.6 km/h 8.0 km/h 54 % 0.0 mm
10:52 20.9 °C 11.2 °C 1027.7 hPa Calm   6.4 km/h 54 % 0.0 mm
11:02 21.6 °C 11.0 °C 1027.7 hPa SE 4.8 km/h 6.4 km/h 51 % 0.0 mm
11:07 21.6 °C 10.7 °C 1027.7 hPa SW 1.6 km/h 8.0 km/h 50 % 0.0 mm
11:12 21.8 °C 10.9 °C 1027.7 hPa ESE 3.2 km/h 8.0 km/h 50 % 0.0 mm
11:17 21.8 °C 10.6 °C 1027.7 hPa Calm   6.4 km/h 49 % 0.0 mm
11:22 21.9 °C 11.0 °C 1027.7 hPa East 4.8 km/h 6.4 km/h 50 % 0.0 mm
11:27 22.2 °C 11.3 °C 1027.7 hPa ESE 4.8 km/h 8.0 km/h 50 % 0.0 mm
11:32 22.6 °C 11.3 °C 1027.7 hPa Calm   8.0 km/h 49 % 0.0 mm
11:37 22.5 °C 10.9 °C 1027.7 hPa ESE 6.4 km/h 6.4 km/h 48 % 0.0 mm
11:42 22.3 °C 10.8 °C 1027.7 hPa ENE 3.2 km/h 6.4 km/h 48 % 0.0 mm
11:47 22.2 °C 11.3 °C 1027.7 hPa Calm   9.7 km/h 50 % 0.0 mm
11:52 22.4 °C 10.8 °C 1027.7 hPa Calm   9.7 km/h 48 % 0.0 mm
11:57 22.7 °C 11.1 °C 1027.7 hPa SW 6.4 km/h 9.7 km/h 48 % 0.0 mm
12:02 22.6 °C 11.0 °C 1027.7 hPa SSW 1.6 km/h 9.7 km/h 48 % 0.0 mm
12:12 23.0 °C 11.1 °C 1027.7 hPa ESE 1.6 km/h 8.0 km/h 47 % 0.0 mm
12:17 22.6 °C 11.0 °C 1027.7 hPa SE 3.2 km/h 9.7 km/h 48 % 0.0 mm
12:22 22.8 °C 11.5 °C 1027.7 hPa East 3.2 km/h 11.3 km/h 49 % 0.0 mm
12:27 23.1 °C 11.5 °C 1027.7 hPa SW 1.6 km/h 11.3 km/h 48 % 0.0 mm
12:32 23.2 °C 11.3 °C 1027.7 hPa ENE 9.7 km/h 11.3 km/h 47 % 0.0 mm
12:37 23.0 °C 11.4 °C 1027.7 hPa SE 3.2 km/h 11.3 km/h 48 % 0.0 mm
12:42 23.3 °C 11.7 °C 1027.7 hPa ENE 3.2 km/h 11.3 km/h 48 % 0.0 mm
12:52 23.4 °C 11.8 °C 1027.3 hPa SSE 6.4 km/h 12.9 km/h 48 % 0.0 mm
12:57 23.3 °C 11.7 °C 1027.7 hPa Calm   16.1 km/h 48 % 0.0 mm
13:02 23.1 °C 11.5 °C 1027.7 hPa ESE 3.2 km/h 16.1 km/h 48 % 0.0 mm
13:07 23.2 °C 11.9 °C 1027.3 hPa East 1.6 km/h 11.3 km/h 49 % 0.0 mm
13:12 23.2 °C 11.6 °C 1027.3 hPa Calm   11.3 km/h 48 % 0.0 mm
13:22 23.6 °C 11.6 °C 1027.3 hPa Calm   8.0 km/h 47 % 0.0 mm
13:27 24.3 °C 12.3 °C 1027.3 hPa SSE 6.4 km/h 8.0 km/h 47 % 0.0 mm
13:32 24.4 °C 12.0 °C 1027.3 hPa SW 8.0 km/h 8.0 km/h 46 % 0.0 mm
13:37 24.8 °C 12.4 °C 1027.3 hPa South 6.4 km/h 9.7 km/h 46 % 0.0 mm
13:42 24.5 °C 11.8 °C 1027.3 hPa ENE 4.8 km/h 9.7 km/h 45 % 0.0 mm
13:47 24.3 °C 11.9 °C 1027.3 hPa South 3.2 km/h 9.7 km/h 46 % 0.0 mm
13:52 24.6 °C 11.9 °C 1027.0 hPa WSW 1.6 km/h 9.7 km/h 45 % 0.0 mm
13:57 24.7 °C 12.0 °C 1027.0 hPa SSE 3.2 km/h 11.3 km/h 45 % 0.0 mm
14:02 24.6 °C 12.2 °C 1027.0 hPa Calm   11.3 km/h 46 % 0.0 mm
14:07 24.9 °C 12.1 °C 1027.0 hPa SW 3.2 km/h 8.0 km/h 45 % 0.0 mm
14:12 25.5 °C 12.7 °C 1027.0 hPa ENE 9.7 km/h 9.7 km/h 45 % 0.0 mm
14:22 25.0 °C 12.2 °C 1027.0 hPa East 4.8 km/h 11.3 km/h 45 % 0.0 mm
14:27 25.0 °C 12.6 °C 1027.0 hPa NNE 12.9 km/h 12.9 km/h 46 % 0.0 mm
14:32 24.7 °C 12.6 °C 1027.0 hPa NE 3.2 km/h 11.3 km/h 47 % 0.0 mm
14:37 24.8 °C 12.4 °C 1027.0 hPa Calm   16.1 km/h 46 % 0.0 mm
14:42 24.9 °C 12.8 °C 1027.0 hPa NE 6.4 km/h 16.1 km/h 47 % 0.0 mm
14:52 24.9 °C 12.5 °C 1027.0 hPa ENE 4.8 km/h 11.3 km/h 46 % 0.0 mm
14:57 25.0 °C 12.9 °C 1026.6 hPa East 3.2 km/h 16.1 km/h 47 % 0.0 mm
15:02 25.4 °C 12.9 °C 1026.6 hPa NW 3.2 km/h 16.1 km/h 46 % 0.0 mm
15:07 25.5 °C 13.0 °C 1026.6 hPa Calm   11.3 km/h 46 % 0.0 mm
15:12 25.6 °C 12.8 °C 1026.6 hPa ENE 8.0 km/h 11.3 km/h 45 % 0.0 mm
15:17 25.5 °C 12.7 °C 1026.6 hPa ENE 11.3 km/h 14.5 km/h 45 % 0.0 mm
15:22 25.5 °C 13.0 °C 1026.6 hPa NE 8.0 km/h 14.5 km/h 46 % 0.0 mm
15:32 25.2 °C 12.8 °C 1026.6 hPa ENE 3.2 km/h 14.5 km/h 46 % 0.0 mm
15:37 25.6 °C 12.8 °C 1026.6 hPa ENE 6.4 km/h 16.1 km/h 45 % 0.0 mm
15:42 25.9 °C 13.1 °C 1026.6 hPa SE 1.6 km/h 16.1 km/h 45 % 0.0 mm
15:47 26.1 °C 13.2 °C 1026.6 hPa ENE 8.0 km/h 16.1 km/h 45 % 0.0 mm
15:52 25.7 °C 12.9 °C 1026.6 hPa NE 6.4 km/h 16.1 km/h 45 % 0.0 mm
16:02 25.8 °C 13.3 °C 1026.3 hPa SE 1.6 km/h 11.3 km/h 46 % 0.0 mm
16:12 26.2 °C 13.3 °C 1026.3 hPa ENE 3.2 km/h 14.5 km/h 45 % 0.0 mm
16:17 26.1 °C 13.2 °C 1026.3 hPa SW 6.4 km/h 12.9 km/h 45 % 0.0 mm
16:22 26.5 °C 13.6 °C 1026.3 hPa SSE 3.2 km/h 12.9 km/h 45 % 0.0 mm
16:27 26.8 °C 13.5 °C 1026.3 hPa SE 3.2 km/h 11.3 km/h 44 % 0.0 mm
16:32 26.5 °C 12.9 °C 1026.3 hPa South 1.6 km/h 11.3 km/h 43 % 0.0 mm
16:37 26.4 °C 13.2 °C 1026.0 hPa West 1.6 km/h 14.5 km/h 44 % 0.0 mm
16:42 26.6 °C 13.3 °C 1026.0 hPa West 1.6 km/h 14.5 km/h 44 % 0.0 mm
16:47 26.9 °C 13.3 °C 1026.0 hPa NE 4.8 km/h 16.1 km/h 43 % 0.0 mm
16:57 27.0 °C 13.7 °C 1026.0 hPa ENE 6.4 km/h 16.1 km/h 44 % 0.0 mm
17:02 27.2 °C 13.5 °C 1026.0 hPa ENE 3.2 km/h 16.1 km/h 43 % 0.0 mm
17:12 26.9 °C 13.6 °C 1026.0 hPa ENE 6.4 km/h 9.7 km/h 44 % 0.0 mm
17:17 26.8 °C 13.2 °C 1026.0 hPa North 1.6 km/h 12.9 km/h 43 % 0.0 mm
17:22 27.0 °C 13.4 °C 1026.0 hPa ESE 8.0 km/h 12.9 km/h 43 % 0.0 mm
17:32 27.0 °C 13.4 °C 1026.0 hPa East 4.8 km/h 12.9 km/h 43 % 0.0 mm
17:42 27.1 °C 13.8 °C 1026.0 hPa SSE 3.2 km/h 11.3 km/h 44 % 0.0 mm
17:47 27.3 °C 13.6 °C 1026.0 hPa ESE 1.6 km/h 11.3 km/h 43 % 0.0 mm
17:52 27.7 °C 13.6 °C 1026.0 hPa East 11.3 km/h 11.3 km/h 42 % 0.0 mm
18:02 27.4 °C 13.7 °C 1025.6 hPa East 1.6 km/h 11.3 km/h 43 % 0.0 mm
18:07 27.3 °C 13.6 °C 1026.0 hPa ESE 3.2 km/h 11.3 km/h 43 % 0.0 mm
18:12 26.9 °C 13.6 °C 1025.6 hPa ENE 8.0 km/h 11.3 km/h 44 % 0.0 mm
18:17 26.9 °C 13.6 °C 1025.6 hPa NE 6.4 km/h 9.7 km/h 44 % 0.0 mm
18:22 26.9 °C 13.6 °C 1025.6 hPa NE 8.0 km/h 9.7 km/h 44 % 0.0 mm
18:32 26.9 °C 13.6 °C 1025.6 hPa East 6.4 km/h 11.3 km/h 44 % 0.0 mm
18:42 26.8 °C 13.5 °C 1025.6 hPa East 8.0 km/h 12.9 km/h 44 % 0.0 mm
18:47 27.0 °C 13.7 °C 1025.6 hPa Calm   12.9 km/h 44 % 0.0 mm
18:52 27.4 °C 13.4 °C 1025.6 hPa East 3.2 km/h 12.9 km/h 42 % 0.0 mm
18:57 27.1 °C 13.8 °C 1025.6 hPa ENE 8.0 km/h 11.3 km/h 44 % 0.0 mm
19:02 26.9 °C 13.6 °C 1025.6 hPa ENE 3.2 km/h 11.3 km/h 44 % 0.0 mm
19:12 26.7 °C 13.8 °C 1025.6 hPa SSE 1.6 km/h 11.3 km/h 45 % 0.0 mm
19:17 27.1 °C 13.8 °C 1025.6 hPa Calm   11.3 km/h 44 % 0.0 mm
19:22 27.1 °C 13.8 °C 1025.6 hPa ESE 3.2 km/h 11.3 km/h 44 % 0.0 mm
19:27 26.8 °C 13.5 °C 1025.6 hPa East 3.2 km/h 8.0 km/h 44 % 0.0 mm
19:32 26.7 °C 13.8 °C 1025.6 hPa ENE 4.8 km/h 8.0 km/h 45 % 0.0 mm
19:42 26.5 °C 13.6 °C 1025.6 hPa ESE 1.6 km/h 9.7 km/h 45 % 0.0 mm
19:47 26.5 °C 13.9 °C 1025.6 hPa East 3.2 km/h 8.0 km/h 46 % 0.0 mm
19:52 26.4 °C 13.8 °C 1025.6 hPa NE 3.2 km/h 8.0 km/h 46 % 0.0 mm
19:57 26.4 °C 13.8 °C 1025.6 hPa ENE 4.8 km/h 9.7 km/h 46 % 0.0 mm
20:02 26.3 °C 13.8 °C 1025.3 hPa ENE 3.2 km/h 9.7 km/h 46 % 0.0 mm
20:07 26.2 °C 14.0 °C 1025.3 hPa East 1.6 km/h 8.0 km/h 47 % 0.0 mm
20:17 26.0 °C 14.1 °C 1025.3 hPa Calm   8.0 km/h 48 % 0.0 mm
20:22 25.8 °C 14.3 °C 1025.3 hPa East 3.2 km/h 8.0 km/h 49 % 0.0 mm
20:32 25.3 °C 14.1 °C 1025.6 hPa ENE 1.6 km/h 8.0 km/h 50 % 0.0 mm
20:42 24.8 °C 14.0 °C 1025.6 hPa East 1.6 km/h 8.0 km/h 51 % 0.0 mm
20:47 24.4 °C 14.2 °C 1025.6 hPa East 3.2 km/h 6.4 km/h 53 % 0.0 mm
20:52 24.1 °C 14.2 °C 1025.6 hPa East 3.2 km/h 6.4 km/h 54 % 0.0 mm
20:57 23.9 °C 14.0 °C 1025.6 hPa East 3.2 km/h 4.8 km/h 54 % 0.0 mm
21:02 23.8 °C 14.2 °C 1025.6 hPa ENE 1.6 km/h 4.8 km/h 55 % 0.0 mm
21:12 23.5 °C 13.9 °C 1025.6 hPa Calm   4.8 km/h 55 % 0.0 mm
21:17 23.4 °C 14.1 °C 1025.6 hPa East 3.2 km/h 6.4 km/h 56 % 0.0 mm
21:22 23.2 °C 13.9 °C 1025.6 hPa ENE 3.2 km/h 6.4 km/h 56 % 0.0 mm
21:32 23.1 °C 14.1 °C 1025.6 hPa ENE 3.2 km/h 6.4 km/h 57 % 0.0 mm
21:37 22.9 °C 14.2 °C 1025.6 hPa Calm   6.4 km/h 58 % 0.0 mm
21:42 22.7 °C 14.0 °C 1025.6 hPa Calm   6.4 km/h 58 % 0.0 mm
21:47 22.4 °C 14.0 °C 1025.6 hPa Calm   4.8 km/h 59 % 0.0 mm
21:52 22.2 °C 14.1 °C 1025.6 hPa Calm   4.8 km/h 60 % 0.0 mm
21:57 21.9 °C 14.0 °C 1025.6 hPa Calm     61 % 0.0 mm
22:02 21.6 °C 14.3 °C 1025.6 hPa Calm     63 % 0.0 mm
22:12 21.3 °C 14.2 °C 1025.6 hPa Calm     64 % 0.0 mm
22:17 21.2 °C 14.1 °C 1025.6 hPa Calm     64 % 0.0 mm
22:22 21.1 °C 14.3 °C 1025.6 hPa Calm     65 % 0.0 mm
22:32 20.9 °C 14.1 °C 1025.6 hPa Calm     65 % 0.0 mm
22:37 20.6 °C 13.8 °C 1025.6 hPa Calm     65 % 0.0 mm
22:42 20.3 °C 14.0 °C 1025.6 hPa Calm     67 % 0.0 mm
22:52 19.9 °C 14.0 °C 1025.6 hPa Calm     69 % 0.0 mm
23:02 19.7 °C 14.1 °C 1025.6 hPa Calm     70 % 0.0 mm
23:12 19.7 °C 13.6 °C 1025.3 hPa Calm     68 % 0.0 mm
23:17 19.8 °C 14.2 °C 1025.3 hPa Calm     70 % 0.0 mm
23:22 19.8 °C 14.2 °C 1025.3 hPa Calm     70 % 0.0 mm
23:27 19.6 °C 14.0 °C 1025.3 hPa Calm     70 % 0.0 mm
23:32 19.4 °C 13.8 °C 1025.3 hPa Calm     70 % 0.0 mm
23:42 19.6 °C 14.2 °C 1025.3 hPa Calm     71 % 0.0 mm
23:52 19.8 °C 14.4 °C 1025.3 hPa Calm     71 % 0.0 mm
Meteo18
Compliments of Weather Underground - 4 mb

Script developed by  Jim McMurry - jmcmurry@mwt.net Adapted for the template by  Wim van der Kuil - Leuven-Template.eu

You find our weather info also at:

European Weather Network

Weather Underground

Equipment we use:

Weather-station
Davis Vue

Weather-program
Meteohub

Weather-server
Raspberry PI 2 B+

Provider
1 and 1

Davis Vue

Meteohub

Raspberry PI 2 B+

1 and 1